Time;durP1;ratioP1;P1;durP2;ratioP2;P2;SDS_P1;SDS_P2;PMS_P1;PMS_P2;Temp;Humidity;BMP_temperature;BMP_pressure;BME280_temperature;BME280_humidity;BME280_pressure;Samples;Min_cycle;Max_cycle;Signal;HPM_P1;HPM_P2
2021/12/29 00:00:17;;;;;;;1.23;0.90;;;;;;;8.46;100.00;98531.03;5010134;28;20174;-67
2021/12/29 00:02:42;;;;;;;1.70;0.73;;;;;;;8.55;100.00;98529.56;5023967;28;20174;-66
2021/12/29 00:05:08;;;;;;;2.73;0.93;;;;;;;8.66;100.00;98533.94;5002228;28;20175;-66
2021/12/29 00:07:34;;;;;;;3.00;1.20;;;;;;;8.64;100.00;98536.59;5000707;28;20696;-67
2021/12/29 00:10:01;;;;;;;1.47;0.97;;;;;;;8.72;100.00;98541.19;4992646;28;20206;-66
2021/12/29 00:12:27;;;;;;;2.10;0.93;;;;;;;8.62;100.00;98553.84;4999769;28;20211;-66
2021/12/29 00:14:54;;;;;;;2.67;1.00;;;;;;;8.61;100.00;98570.13;4994166;28;20223;-67
2021/12/29 00:17:19;;;;;;;1.77;1.10;;;;;;;8.56;100.00;98567.91;5018285;28;20308;-66
2021/12/29 00:19:45;;;;;;;2.07;0.80;;;;;;;8.52;100.00;98579.31;5013988;28;20636;-66
2021/12/29 00:22:10;;;;;;;1.87;0.93;;;;;;;8.48;100.00;98572.72;5019815;28;20348;-66
2021/12/29 00:24:35;;;;;;;4.03;1.00;;;;;;;8.43;100.00;98571.41;5013623;28;20197;-66
2021/12/29 00:27:01;;;;;;;1.27;0.80;;;;;;;8.43;100.00;98582.47;5013655;28;20615;-66
2021/12/29 00:29:26;;;;;;;0.80;0.70;;;;;;;8.49;100.00;98583.81;5013905;28;20182;-67
2021/12/29 00:31:51;;;;;;;1.97;0.80;;;;;;;8.54;100.00;98577.44;4985890;28;20785;-67
2021/12/29 00:34:17;;;;;;;1.17;0.77;;;;;;;8.58;100.00;98578.03;5014998;28;20189;-67
2021/12/29 00:36:42;;;;;;;3.77;1.33;;;;;;;8.55;100.00;98586.75;5013910;28;20205;-67
2021/12/29 00:39:07;;;;;;;1.20;0.80;;;;;;;8.56;100.00;98593.53;5013720;28;20198;-66
2021/12/29 00:41:33;;;;;;;0.53;0.53;;;;;;;8.64;100.00;98589.59;5012667;28;20222;-67
2021/12/29 00:43:58;;;;;;;0.80;0.50;;;;;;;8.61;100.00;98593.22;5016913;28;20260;-67
2021/12/29 00:46:23;;;;;;;1.80;0.80;;;;;;;8.56;100.00;98603.78;5011858;28;20395;-67
2021/12/29 00:48:49;;;;;;;2.40;0.77;;;;;;;8.74;100.00;98605.97;5013107;28;20195;-67
2021/12/29 00:51:15;;;;;;;0.73;0.67;;;;;;;8.76;100.00;98616.09;4997018;28;20364;-67
2021/12/29 00:53:40;;;;;;;0.63;0.63;;;;;;;8.75;100.00;98624.75;5003575;28;20171;-67
2021/12/29 00:56:06;;;;;;;0.50;0.50;;;;;;;8.78;100.00;98638.19;5006739;28;20195;-67
2021/12/29 00:58:32;;;;;;;2.33;1.03;;;;;;;8.82;100.00;98637.03;4993776;28;20258;-67
2021/12/29 01:00:59;;;;;;;1.03;0.70;;;;;;;8.82;100.00;98652.41;4990793;28;20230;-66
2021/12/29 01:03:25;;;;;;;1.50;0.80;;;;;;;8.86;100.00;98660.69;5001517;28;20258;-66
2021/12/29 01:05:50;;;;;;;1.93;0.63;;;;;;;8.80;100.00;98661.94;5000660;28;20182;-67
2021/12/29 01:08:16;;;;;;;1.50;0.70;;;;;;;8.73;100.00;98663.28;5005032;28;20203;-67
2021/12/29 01:10:42;;;;;;;0.70;0.70;;;;;;;8.69;100.00;98672.94;4988796;28;20309;-67
2021/12/29 01:13:10;;;;;;;1.47;0.70;;;;;;;8.69;100.00;98682.38;5003378;28;20183;-66
2021/12/29 01:18:24;;;;;;;1.87;0.90;;;;;;;8.65;100.00;98694.59;4993543;28;20227;-66
2021/12/29 01:20:50;;;;;;;1.60;0.87;;;;;;;8.61;100.00;98705.16;4989453;28;20717;-67
2021/12/29 01:23:15;;;;;;;0.70;0.70;;;;;;;8.52;100.00;98717.69;5005470;28;20179;-66
2021/12/29 01:25:40;;;;;;;1.13;0.60;;;;;;;8.60;100.00;98722.28;5012604;28;20248;-67
2021/12/29 01:28:06;;;;;;;0.67;0.67;;;;;;;8.59;100.00;98736.03;5012642;28;20290;-66
2021/12/29 01:30:32;;;;;;;2.67;0.80;;;;;;;8.64;100.00;98743.41;5006463;28;20806;-67
2021/12/29 01:33:00;;;;;;;1.40;0.87;;;;;;;8.63;100.00;98752.03;5023861;28;20174;-66
2021/12/29 01:35:25;;;;;;;0.70;0.70;;;;;;;8.77;100.00;98754.47;5012460;28;20206;-66
2021/12/29 01:37:51;;;;;;;1.40;1.00;;;;;;;8.74;100.00;98762.34;5012442;28;20610;-67
2021/12/29 01:40:19;;;;;;;1.13;0.90;;;;;;;8.76;100.00;98755.38;5004362;28;20634;-66
2021/12/29 01:42:44;;;;;;;2.20;1.00;;;;;;;8.80;100.00;98771.38;5025518;28;20171;-67
2021/12/29 01:45:12;;;;;;;1.37;0.87;;;;;;;8.86;100.00;98760.72;5012145;28;20594;-66
2021/12/29 01:47:38;;;;;;;4.47;0.80;;;;;;;8.93;100.00;98759.38;5012226;28;20623;-67
2021/12/29 01:50:04;;;;;;;1.57;0.80;;;;;;;9.04;100.00;98769.69;5003434;28;20262;-67
2021/12/29 01:52:36;;;;;;;2.43;0.90;;;;;;;9.05;100.00;98780.75;5027045;28;20194;-67
2021/12/29 01:55:03;;;;;;;1.47;0.80;;;;;;;8.88;100.00;98789.59;5012065;28;20329;-67
2021/12/29 01:57:28;;;;;;;2.87;0.70;;;;;;;8.85;100.00;98790.63;5011890;28;20205;-67
2021/12/29 01:59:54;;;;;;;1.83;0.70;;;;;;;8.92;100.00;98793.63;5012124;28;20171;-66
2021/12/29 02:02:19;;;;;;;1.77;1.10;;;;;;;8.88;100.00;98798.13;5017524;28;20234;-66
2021/12/29 02:04:47;;;;;;;1.73;0.90;;;;;;;8.79;100.00;98797.94;5011812;28;20175;-66
2021/12/29 02:07:12;;;;;;;1.03;0.93;;;;;;;8.73;100.00;98809.44;5009427;28;20267;-67
2021/12/29 02:09:39;;;;;;;1.00;0.60;;;;;;;8.80;100.00;98818.34;5022584;28;20179;-66
2021/12/29 02:12:05;;;;;;;0.90;0.90;;;;;;;8.85;100.00;98823.16;5022268;28;20233;-66
2021/12/29 02:14:32;;;;;;;2.03;0.77;;;;;;;8.80;100.00;98822.66;5011390;28;20202;-66
2021/12/29 02:16:59;;;;;;;1.73;0.90;;;;;;;8.64;100.00;98821.13;5011635;28;20183;-66
2021/12/29 02:19:25;;;;;;;1.17;0.60;;;;;;;8.66;100.00;98821.84;5011240;28;20190;-68
2021/12/29 02:22:00;;;;;;;1.23;0.80;;;;;;;8.72;100.00;98829.13;5015283;28;20343;-67
2021/12/29 02:24:36;;;;;;;1.30;0.90;;;;;;;8.69;100.00;98831.88;5011773;28;20268;-66
2021/12/29 02:27:03;;;;;;;2.83;0.90;;;;;;;8.81;100.00;98844.81;5010809;28;20635;-67
2021/12/29 02:29:29;;;;;;;2.00;0.80;;;;;;;8.85;100.00;98844.50;5011535;28;20689;-67
2021/12/29 02:31:54;;;;;;;1.20;0.87;;;;;;;8.86;100.00;98851.28;5015663;28;20308;-67
2021/12/29 02:34:19;;;;;;;0.90;0.73;;;;;;;8.77;100.00;98862.16;5012045;28;20170;-67
2021/12/29 02:36:46;;;;;;;1.13;0.70;;;;;;;8.86;100.00;98860.72;5011266;28;20187;-67
2021/12/29 02:39:14;;;;;;;2.37;0.80;;;;;;;8.79;100.00;98870.53;5011277;28;20175;-67
2021/12/29 02:41:43;;;;;;;0.60;0.60;;;;;;;8.80;100.00;98877.31;5013850;28;20249;-67
2021/12/29 02:44:15;;;;;;;0.70;0.70;;;;;;;8.79;100.00;98880.81;5013282;28;20179;-67
2021/12/29 02:46:41;;;;;;;1.00;0.60;;;;;;;8.99;100.00;98897.44;5011154;28;20187;-66
2021/12/29 02:49:06;;;;;;;1.67;0.70;;;;;;;8.98;100.00;98893.22;5011152;28;20790;-67
2021/12/29 02:51:33;;;;;;;1.23;0.70;;;;;;;8.97;100.00;98868.50;5012623;28;20627;-67
2021/12/29 02:53:59;;;;;;;0.97;0.80;;;;;;;8.94;100.00;98871.25;5014723;28;20183;-67
2021/12/29 02:56:26;;;;;;;1.17;0.80;;;;;;;8.87;100.00;98893.94;5011264;28;20365;-66
2021/12/29 02:58:52;;;;;;;1.43;0.70;;;;;;;8.92;100.00;98888.50;5010892;28;20558;-66
2021/12/29 03:01:18;;;;;;;1.07;0.70;;;;;;;8.75;100.00;98899.06;5010750;28;20711;-67
2021/12/29 03:03:43;;;;;;;2.00;0.80;;;;;;;8.77;100.00;98902.34;5016242;28;20174;-67
2021/12/29 03:06:09;;;;;;;1.07;0.90;;;;;;;8.71;100.00;98909.53;5010928;28;20175;-66
2021/12/29 03:08:37;;;;;;;1.27;0.70;;;;;;;8.61;100.00;98926.44;5010813;28;20202;-66
2021/12/29 03:11:03;;;;;;;0.70;0.70;;;;;;;8.67;100.00;98935.44;5008573;28;20230;-67
2021/12/29 03:13:32;;;;;;;1.87;0.70;;;;;;;8.67;100.00;98930.31;5017956;28;20178;-66
2021/12/29 03:15:58;;;;;;;0.70;0.70;;;;;;;8.62;100.00;98924.69;5010383;28;20209;-66
2021/12/29 03:18:23;;;;;;;0.83;0.80;;;;;;;8.61;100.00;98931.56;5010650;28;20194;-66
2021/12/29 03:20:49;;;;;;;1.70;0.93;;;;;;;8.65;100.00;98935.56;5006849;28;20222;-66
2021/12/29 03:23:16;;;;;;;1.07;0.80;;;;;;;8.66;100.00;98923.59;5019595;28;20201;-67
2021/12/29 03:25:42;;;;;;;1.60;0.73;;;;;;;8.76;100.00;98928.91;5010271;28;20206;-66
2021/12/29 03:28:07;;;;;;;1.23;1.00;;;;;;;8.76;100.00;98944.28;5010417;28;20226;-67
2021/12/29 03:30:36;;;;;;;0.50;0.50;;;;;;;8.75;100.00;98943.47;5004467;28;20225;-67
2021/12/29 03:33:07;;;;;;;0.80;0.80;;;;;;;8.68;100.00;98960.16;5021182;28;20899;-66
2021/12/29 03:35:35;;;;;;;1.40;0.70;;;;;;;8.63;100.00;98960.47;5010290;28;20203;-66
2021/12/29 03:38:03;;;;;;;2.33;0.83;;;;;;;8.63;100.00;98980.97;5010403;28;20277;-66
2021/12/29 03:40:29;;;;;;;1.43;0.90;;;;;;;8.48;100.00;98980.22;5003214;28;20241;-67
2021/12/29 03:42:55;;;;;;;2.50;1.30;;;;;;;8.46;100.00;98986.31;5021948;28;20182;-67
2021/12/29 03:45:21;;;;;;;1.50;0.90;;;;;;;8.34;100.00;98985.38;5010192;28;20171;-67
2021/12/29 03:47:47;;;;;;;1.80;1.23;;;;;;;8.38;100.00;98979.97;5010298;28;20905;-66
2021/12/29 03:50:13;;;;;;;1.60;0.90;;;;;;;8.28;100.00;98984.00;5001713;28;20182;-67
2021/12/29 03:52:39;;;;;;;1.07;0.97;;;;;;;8.07;100.00;98987.03;5023982;28;20516;-67
2021/12/29 03:55:04;;;;;;;0.93;0.80;;;;;;;8.03;100.00;98982.97;5008550;28;20295;-66
2021/12/29 03:57:30;;;;;;;0.80;0.80;;;;;;;8.06;100.00;98993.06;5010016;28;20293;-67
2021/12/29 03:59:55;;;;;;;1.00;0.90;;;;;;;7.86;100.00;98993.44;5010143;28;20189;-66
2021/12/29 04:02:20;;;;;;;2.00;0.87;;;;;;;7.83;100.00;98996.22;5005581;28;20312;-66
2021/12/29 04:04:46;;;;;;;0.83;0.83;;;;;;;7.80;100.00;99009.19;5009803;28;20163;-66
2021/12/29 04:07:11;;;;;;;1.70;0.97;;;;;;;7.83;100.00;99014.13;5010006;28;20273;-66
2021/12/29 04:09:38;;;;;;;1.63;0.77;;;;;;;7.95;100.00;99018.50;5010182;28;20278;-66
2021/12/29 04:12:04;;;;;;;1.33;1.00;;;;;;;8.00;100.00;99013.91;5015283;28;20567;-66
2021/12/29 04:14:29;;;;;;;1.23;1.13;;;;;;;8.01;100.00;99007.88;5009649;28;20178;-66
2021/12/29 04:16:57;;;;;;;1.13;1.03;;;;;;;8.01;100.00;99012.16;5014201;28;20229;-66
2021/12/29 04:19:39;;;;;;;1.37;0.80;;;;;;;8.08;100.00;99006.56;5010710;28;20178;-66
2021/12/29 04:22:10;;;;;;;2.40;1.17;;;;;;;8.11;100.00;99012.44;5015359;28;20698;-66
2021/12/29 04:24:36;;;;;;;1.13;1.03;;;;;;;8.17;100.00;99014.59;5009670;28;20170;-66
2021/12/29 04:27:05;;;;;;;1.17;0.90;;;;;;;8.22;100.00;99018.53;5009280;28;20193;-66
2021/12/29 04:29:31;;;;;;;1.87;1.00;;;;;;;8.33;100.00;99022.16;5024145;28;20232;-66
2021/12/29 04:31:56;;;;;;;0.80;0.80;;;;;;;8.45;100.00;99029.09;4994672;28;20640;-66
2021/12/29 04:34:21;;;;;;;1.23;0.90;;;;;;;8.44;100.00;99035.13;5010335;28;20704;-66
2021/12/29 04:36:47;;;;;;;2.30;1.07;;;;;;;8.34;100.00;99034.88;5005636;28;20190;-67
2021/12/29 04:39:12;;;;;;;1.97;1.20;;;;;;;8.36;100.00;99042.47;4990187;28;20198;-66
2021/12/29 04:41:37;;;;;;;0.97;0.93;;;;;;;8.43;100.00;99048.03;4993251;28;20280;-66
2021/12/29 04:44:03;;;;;;;2.93;1.37;;;;;;;8.42;100.00;99061.78;5012523;28;20241;-67
2021/12/29 04:46:36;;;;;;;2.63;1.27;;;;;;;8.49;100.00;99070.75;5000034;28;20187;-67
2021/12/29 04:49:02;;;;;;;8.13;2.90;;;;;;;8.46;100.00;99063.22;4990080;28;20199;-67
2021/12/29 04:51:35;;;;;;;1.60;1.00;;;;;;;8.65;100.00;99061.19;4993481;28;20741;-67
2021/12/29 04:54:02;;;;;;;0.87;0.83;;;;;;;8.62;100.00;99070.81;4997079;28;20163;-67
2021/12/29 04:56:28;;;;;;;1.47;1.20;;;;;;;8.74;100.00;99082.03;4993616;28;20294;-67
2021/12/29 04:58:53;;;;;;;2.33;1.27;;;;;;;8.79;100.00;99082.56;4993758;28;20318;-67
2021/12/29 05:01:19;;;;;;;1.17;1.07;;;;;;;8.77;100.00;99094.66;4993391;28;20226;-67
2021/12/29 05:03:45;;;;;;;1.20;1.10;;;;;;;8.72;100.00;99103.47;4998769;28;20187;-67
2021/12/29 05:08:36;;;;;;;2.63;1.20;;;;;;;8.70;100.00;99105.28;4993465;28;20254;-67
2021/12/29 05:11:09;;;;;;;1.10;0.90;;;;;;;8.65;100.00;99111.63;4991057;28;20233;-66
2021/12/29 05:13:38;;;;;;;1.03;0.80;;;;;;;8.80;100.00;99115.78;5018349;28;20183;-66
2021/12/29 05:16:05;;;;;;;0.93;0.93;;;;;;;8.82;100.00;99119.09;5013016;28;20217;-66
2021/12/29 05:18:32;;;;;;;3.73;1.00;;;;;;;8.77;100.00;99121.13;5013322;28;20199;-66
2021/12/29 05:20:58;;;;;;;1.10;0.87;;;;;;;8.78;100.00;99127.91;5015381;28;20339;-66
2021/12/29 05:23:25;;;;;;;0.97;0.83;;;;;;;8.70;100.00;99122.44;5023141;28;20186;-67
2021/12/29 05:25:51;;;;;;;1.07;1.03;;;;;;;8.74;100.00;99130.75;5012621;28;20171;-67
2021/12/29 05:28:20;;;;;;;0.70;0.70;;;;;;;8.74;100.00;99125.63;5012417;28;20244;-67
2021/12/29 05:30:46;;;;;;;1.50;1.13;;;;;;;8.70;100.00;99128.38;5007736;28;20760;-67
2021/12/29 05:33:12;;;;;;;3.20;1.03;;;;;;;8.65;100.00;99129.59;5021865;28;20367;-67
2021/12/29 05:35:37;;;;;;;1.37;0.83;;;;;;;8.50;100.00;99128.78;5003685;28;20337;-67
2021/12/29 05:38:03;;;;;;;1.00;0.90;;;;;;;8.58;100.00;99141.13;5005706;28;20206;-66
2021/12/29 05:40:29;;;;;;;1.43;0.70;;;;;;;8.50;100.00;99139.03;5002824;28;20230;-66
2021/12/29 05:42:55;;;;;;;2.27;0.83;;;;;;;8.50;100.00;99146.72;5023974;28;20683;-66
2021/12/29 05:45:21;;;;;;;1.20;0.63;;;;;;;8.46;100.00;99150.34;5012135;28;20213;-66
2021/12/29 05:47:47;;;;;;;0.70;0.70;;;;;;;8.42;100.00;99147.16;5012164;28;20233;-66
2021/12/29 05:50:16;;;;;;;2.50;0.70;;;;;;;8.43;100.00;99146.22;5003638;28;20620;-66
2021/12/29 05:52:41;;;;;;;2.17;0.90;;;;;;;8.41;100.00;99150.66;5025835;28;20224;-66
2021/12/29 05:55:07;;;;;;;1.33;0.80;;;;;;;8.27;100.00;99158.34;5011825;28;20277;-66
2021/12/29 05:57:33;;;;;;;0.90;0.90;;;;;;;8.22;100.00;99154.31;5012071;28;20203;-66
2021/12/29 05:59:59;;;;;;;1.77;1.03;;;;;;;8.16;100.00;99154.69;5012112;28;20204;-67
2021/12/29 06:02:24;;;;;;;1.83;0.90;;;;;;;8.24;100.00;99162.72;5010934;28;20771;-67
2021/12/29 06:04:50;;;;;;;0.77;0.73;;;;;;;8.05;100.00;99159.59;5011448;28;20229;-67
2021/12/29 06:07:15;;;;;;;0.90;0.73;;;;;;;8.07;100.00;99157.78;5011714;28;20214;-67
2021/12/29 06:09:41;;;;;;;3.83;1.60;;;;;;;7.96;100.00;99163.53;5000585;28;20176;-67
2021/12/29 06:12:07;;;;;;;1.63;0.80;;;;;;;8.06;100.00;99167.22;5013747;28;20606;-67
2021/12/29 06:14:33;;;;;;;1.40;1.10;;;;;;;8.01;100.00;99171.78;4993122;28;20179;-67
2021/12/29 06:16:58;;;;;;;0.90;0.90;;;;;;;8.04;100.00;99173.34;4992142;28;20266;-67
2021/12/29 06:19:23;;;;;;;1.60;0.90;;;;;;;8.14;100.00;99176.19;4992183;28;20513;-67
2021/12/29 06:21:49;;;;;;;2.30;1.00;;;;;;;8.12;100.00;99178.00;4997740;28;20230;-68
2021/12/29 06:24:14;;;;;;;1.43;0.90;;;;;;;8.06;100.00;99180.03;5012900;28;20193;-65
2021/12/29 06:26:40;;;;;;;1.27;0.80;;;;;;;8.02;100.00;99177.72;5011479;28;20194;-65
2021/12/29 06:29:05;;;;;;;1.27;0.97;;;;;;;8.06;100.00;99184.31;5011520;28;20585;-65
2021/12/29 06:31:32;;;;;;;1.00;1.00;;;;;;;7.93;100.00;99186.78;5010209;28;20626;-65
2021/12/29 06:33:58;;;;;;;1.20;1.10;;;;;;;7.91;100.00;99198.84;5012957;28;20535;-66
2021/12/29 06:36:23;;;;;;;2.87;1.70;;;;;;;7.83;100.00;99206.16;5005708;28;20202;-66
2021/12/29 06:38:49;;;;;;;2.63;1.37;;;;;;;7.80;100.00;99219.13;5006955;28;20199;-66
2021/12/29 06:41:14;;;;;;;4.53;1.63;;;;;;;7.81;100.00;99218.22;5000499;28;20663;-66
2021/12/29 06:43:39;;;;;;;3.10;1.70;;;;;;;7.89;100.00;99219.41;5009069;28;20194;-66
2021/12/29 06:46:05;;;;;;;1.70;1.60;;;;;;;7.97;100.00;99228.41;5012078;28;20175;-66
2021/12/29 06:48:30;;;;;;;3.73;1.90;;;;;;;7.90;100.00;99226.19;5012936;28;20259;-66
2021/12/29 06:50:55;;;;;;;3.93;2.13;;;;;;;7.87;100.00;99230.66;5009469;28;20226;-66
2021/12/29 06:53:20;;;;;;;4.67;1.90;;;;;;;7.94;100.00;99231.13;5028261;28;20273;-66
2021/12/29 06:55:46;;;;;;;2.77;2.10;;;;;;;7.90;100.00;99233.03;5022924;28;20289;-66
2021/12/29 06:58:12;;;;;;;4.20;2.40;;;;;;;8.06;100.00;99235.53;5030981;28;20255;-66
2021/12/29 07:00:38;;;;;;;4.80;2.30;;;;;;;7.99;100.00;99229.09;5025427;28;20233;-66
2021/12/29 07:03:04;;;;;;;4.40;1.83;;;;;;;7.99;100.00;99240.19;5041821;28;20257;-66
2021/12/29 07:05:30;;;;;;;3.17;2.13;;;;;;;7.98;100.00;99242.84;5017674;28;20174;-66
2021/12/29 07:07:56;;;;;;;4.63;2.13;;;;;;;7.94;100.00;99238.81;5012939;28;20957;-66
2021/12/29 07:10:21;;;;;;;4.07;2.20;;;;;;;8.06;100.00;99248.34;5006066;28;20261;-66
2021/12/29 07:12:47;;;;;;;3.10;2.17;;;;;;;8.05;100.00;99250.09;5025797;28;20332;-66
2021/12/29 07:15:13;;;;;;;2.80;1.90;;;;;;;8.09;100.00;99253.31;5011388;28;20230;-66
2021/12/29 07:17:38;;;;;;;4.20;2.23;;;;;;;8.24;100.00;99260.06;5010719;28;20751;-66
2021/12/29 07:20:04;;;;;;;7.23;2.00;;;;;;;8.19;100.00;99264.66;5001118;28;20194;-66
2021/12/29 07:22:30;;;;;;;2.73;2.00;;;;;;;8.23;100.00;99261.00;5029498;28;20678;-66
2021/12/29 07:24:55;;;;;;;3.00;1.93;;;;;;;8.23;100.00;99268.66;5013751;28;20178;-66
2021/12/29 07:27:20;;;;;;;3.00;2.27;;;;;;;8.16;100.00;99267.41;5014593;28;20551;-66
2021/12/29 07:29:46;;;;;;;1.97;1.77;;;;;;;8.26;100.00;99274.53;5016494;28;20293;-66
2021/12/29 07:32:11;;;;;;;4.10;1.93;;;;;;;8.27;100.00;99274.44;5019528;28;20226;-66
2021/12/29 07:34:37;;;;;;;3.17;1.60;;;;;;;8.11;100.00;99268.56;5016150;28;21034;-66
2021/12/29 07:37:02;;;;;;;2.07;1.50;;;;;;;8.10;100.00;99277.16;5010108;28;20317;-66
2021/12/29 07:39:28;;;;;;;3.30;1.50;;;;;;;8.20;100.00;99281.69;5011550;28;20182;-66
2021/12/29 07:41:54;;;;;;;1.93;1.73;;;;;;;8.26;100.00;99284.78;5002543;28;20308;-66
2021/12/29 07:44:20;;;;;;;2.13;1.90;;;;;;;8.30;100.00;99292.22;5013413;28;20265;-65
2021/12/29 07:46:49;;;;;;;2.80;2.03;;;;;;;8.39;100.00;99294.22;5008960;28;20171;-66
2021/12/29 07:49:15;;;;;;;2.50;2.30;;;;;;;8.34;100.00;99305.69;5010147;28;20665;-65
2021/12/29 07:51:41;;;;;;;3.07;2.00;;;;;;;8.41;100.00;99301.84;5012919;28;20229;-66
2021/12/29 07:54:07;;;;;;;2.43;2.03;;;;;;;8.52;100.00;99311.50;5012729;28;20175;-66
2021/12/29 07:56:33;;;;;;;3.73;2.20;;;;;;;8.59;100.00;99310.22;5008153;28;20269;-66
2021/12/29 07:58:59;;;;;;;3.47;2.73;;;;;;;8.55;100.00;99319.00;5010050;28;20332;-66
2021/12/29 08:01:25;;;;;;;3.13;2.17;;;;;;;8.53;100.00;99319.13;4988980;28;20230;-65
2021/12/29 08:03:50;;;;;;;4.73;2.60;;;;;;;8.58;100.00;99328.25;5009617;28;20185;-66
2021/12/29 08:06:17;;;;;;;4.50;2.40;;;;;;;8.61;100.00;99326.34;5010238;28;20254;-66
2021/12/29 08:08:43;;;;;;;3.97;2.07;;;;;;;8.58;100.00;99329.06;5010130;28;20256;-66
2021/12/29 08:11:08;;;;;;;2.80;1.80;;;;;;;8.68;100.00;99321.66;5008633;28;20226;-66
2021/12/29 08:13:33;;;;;;;5.20;2.53;;;;;;;8.79;100.00;99319.28;5019321;28;20544;-66
2021/12/29 08:15:59;;;;;;;4.13;2.57;;;;;;;8.84;100.00;99312.16;5014311;28;20233;-66
2021/12/29 08:18:24;;;;;;;4.50;1.90;;;;;;;8.76;100.00;99300.69;5027928;28;20210;-67
2021/12/29 08:20:50;;;;;;;3.63;2.20;;;;;;;8.60;100.00;99308.50;5008828;28;20317;-67
2021/12/29 08:23:15;;;;;;;5.20;2.30;;;;;;;8.71;100.00;99311.25;5026622;28;20182;-66
2021/12/29 08:25:40;;;;;;;3.70;1.90;;;;;;;8.72;100.00;99321.41;5017350;28;20179;-66
2021/12/29 08:28:06;;;;;;;3.77;1.93;;;;;;;8.62;100.00;99320.31;5013703;28;20216;-66
2021/12/29 08:30:32;;;;;;;4.23;2.10;;;;;;;8.71;100.00;99326.63;4987154;28;20247;-66
2021/12/29 08:32:57;;;;;;;1.90;1.77;;;;;;;8.62;100.00;99330.56;5025716;28;20703;-66
2021/12/29 08:35:23;;;;;;;2.20;1.63;;;;;;;8.68;100.00;99331.91;5020117;28;20211;-67
2021/12/29 08:37:49;;;;;;;4.07;1.83;;;;;;;8.73;100.00;99329.91;5013426;28;20260;-67
2021/12/29 08:40:15;;;;;;;3.87;1.93;;;;;;;8.71;100.00;99327.44;5005156;28;20192;-66
2021/12/29 08:42:43;;;;;;;4.10;1.77;;;;;;;8.80;100.00;99327.81;5013664;28;20234;-68
2021/12/29 08:45:11;;;;;;;3.63;1.80;;;;;;;8.90;100.00;99331.47;5001614;28;20194;-68
2021/12/29 08:47:36;;;;;;;3.17;1.60;;;;;;;9.07;100.00;99337.31;5006884;28;20277;-66
2021/12/29 08:50:06;;;;;;;6.93;1.70;;;;;;;9.12;100.00;99341.28;4997910;28;20290;-66
2021/12/29 08:52:31;;;;;;;4.63;1.73;;;;;;;9.12;100.00;99341.28;5028230;28;20187;-67
2021/12/29 08:54:56;;;;;;;4.90;1.83;;;;;;;9.02;100.00;99345.31;5013139;28;20260;-66
2021/12/29 08:57:22;;;;;;;2.03;1.20;;;;;;;9.00;100.00;99355.66;5013187;28;20341;-66
2021/12/29 08:59:47;;;;;;;4.07;1.20;;;;;;;9.07;100.00;99362.97;5013314;28;20194;-66
2021/12/29 09:02:13;;;;;;;2.07;1.20;;;;;;;9.14;100.00;99367.66;5018542;28;20225;-66
2021/12/29 09:04:38;;;;;;;3.90;1.87;;;;;;;9.21;100.00;99368.13;5013055;28;20330;-66
2021/12/29 09:07:04;;;;;;;5.10;1.90;;;;;;;9.13;100.00;99365.16;5012402;28;20190;-67
2021/12/29 09:09:29;;;;;;;2.37;1.40;;;;;;;9.22;100.00;99363.81;5019483;28;20238;-66
2021/12/29 09:11:55;;;;;;;3.03;1.43;;;;;;;9.40;98.76;99362.66;5022992;28;20283;-67
2021/12/29 09:14:20;;;;;;;4.30;1.40;;;;;;;9.49;97.94;99366.44;5022160;28;20183;-66
2021/12/29 09:16:46;;;;;;;2.97;1.30;;;;;;;9.65;97.00;99371.41;5024095;28;20676;-67
2021/12/29 09:19:13;;;;;;;4.93;1.57;;;;;;;9.56;96.78;99370.25;5020404;28;20294;-66
2021/12/29 09:21:42;;;;;;;3.57;1.50;;;;;;;9.78;95.44;99364.59;5026271;28;20231;-66
2021/12/29 09:24:08;;;;;;;4.50;1.57;;;;;;;9.77;94.75;99359.56;5016075;28;20522;-67
2021/12/29 09:26:33;;;;;;;3.43;1.40;;;;;;;10.07;94.35;99367.09;5026887;28;20251;-67
2021/12/29 09:28:58;;;;;;;2.80;1.47;;;;;;;10.06;92.02;99372.28;5014229;28;20265;-66
2021/12/29 09:31:24;;;;;;;3.73;1.63;;;;;;;10.05;91.98;99371.50;5008351;28;20225;-67
2021/12/29 09:33:51;;;;;;;4.27;1.40;;;;;;;10.14;91.57;99370.88;5010574;28;20182;-67
2021/12/29 09:36:18;;;;;;;6.00;1.50;;;;;;;10.20;90.45;99377.38;5004200;28;20674;-65
2021/12/29 09:38:43;;;;;;;2.47;1.43;;;;;;;10.11;91.02;99383.09;4995260;28;20241;-66
2021/12/29 09:41:13;;;;;;;4.40;1.30;;;;;;;9.89;90.50;99383.66;5012150;28;20257;-67
2021/12/29 09:43:39;;;;;;;2.97;1.47;;;;;;;9.96;90.57;99384.91;5021836;28;20177;-67
2021/12/29 09:46:06;;;;;;;2.73;1.40;;;;;;;10.02;90.73;99380.22;5017700;28;20254;-67
2021/12/29 09:48:32;;;;;;;6.73;2.00;;;;;;;10.00;90.40;99376.09;5012853;28;20272;-66
2021/12/29 09:50:57;;;;;;;3.80;1.60;;;;;;;10.14;89.94;99378.59;5003953;28;20257;-66
2021/12/29 09:53:23;;;;;;;2.90;1.30;;;;;;;9.89;88.66;99378.53;5021106;28;20261;-66
2021/12/29 09:55:48;;;;;;;3.40;1.73;;;;;;;9.85;89.51;99383.03;5018051;28;20216;-66
2021/12/29 09:58:15;;;;;;;3.27;1.30;;;;;;;9.81;88.86;99386.69;5023618;28;20205;-66
2021/12/29 10:00:46;;;;;;;4.13;1.47;;;;;;;9.76;88.63;99391.31;5013303;28;20229;-67
2021/12/29 10:03:14;;;;;;;3.30;1.53;;;;;;;9.82;88.94;99398.63;5010339;28;20209;-65
2021/12/29 10:05:41;;;;;;;2.73;1.27;;;;;;;9.74;89.12;99391.41;5003575;28;20185;-65
2021/12/29 10:08:18;;;;;;;2.60;1.20;;;;;;;9.79;89.08;99384.22;5012209;28;20217;-66
2021/12/29 10:10:49;;;;;;;6.20;1.50;;;;;;;9.82;88.27;99375.50;5012913;28;20359;-66
2021/12/29 10:13:15;;;;;;;5.07;1.20;;;;;;;9.73;88.38;99378.66;5034134;28;20179;-66
2021/12/29 10:15:44;;;;;;;8.87;1.60;;;;;;;9.78;87.96;99379.19;5010195;28;20460;-66
2021/12/29 10:18:18;;;;;;;2.27;1.30;;;;;;;9.84;88.03;99379.63;5011699;28;20575;-65
2021/12/29 10:21:05;;;;;;;4.80;1.67;;;;;;;9.94;87.74;99376.50;5006385;28;20232;-66
2021/12/29 10:23:33;;;;;;;4.20;1.67;;;;;;;10.01;86.46;99364.91;4994298;28;20196;-66
2021/12/29 10:26:14;;;;;;;4.00;1.43;;;;;;;9.96;87.06;99366.91;4993772;28;20672;-66
2021/12/29 10:28:42;;;;;;;5.87;1.70;;;;;;;10.00;86.98;99376.91;5000725;28;20199;-66
2021/12/29 10:31:15;;;;;;;3.77;1.40;;;;;;;9.88;87.22;99380.25;4996083;28;20226;-66
2021/12/29 10:33:48;;;;;;;3.20;1.60;;;;;;;9.77;87.77;99382.69;5008423;28;20178;-65
2021/12/29 10:36:16;;;;;;;6.37;1.40;;;;;;;9.73;88.72;99370.97;5010624;28;20207;-65
2021/12/29 10:38:43;;;;;;;3.37;1.80;;;;;;;9.76;87.93;99371.59;5010377;28;20294;-65
2021/12/29 10:41:09;;;;;;;2.93;1.43;;;;;;;9.76;87.85;99379.31;5010367;28;20233;-65
2021/12/29 10:43:37;;;;;;;3.30;1.77;;;;;;;9.84;87.42;99382.19;5020118;28;20191;-64
2021/12/29 10:46:03;;;;;;;6.83;1.70;;;;;;;9.74;86.80;99388.03;5019588;28;20877;-65
2021/12/29 10:48:30;;;;;;;4.10;1.57;;;;;;;9.91;86.51;99387.78;5028634;28;20277;-64
2021/12/29 10:50:58;;;;;;;6.17;1.90;;;;;;;9.98;85.91;99372.78;5014910;28;20723;-66
2021/12/29 10:53:24;;;;;;;4.67;2.23;;;;;;;10.11;85.40;99365.13;5028403;28;20273;-65
2021/12/29 10:55:49;;;;;;;4.10;1.80;;;;;;;10.22;84.18;99364.44;5026093;28;20210;-64
2021/12/29 10:58:19;;;;;;;4.97;1.83;;;;;;;10.13;84.06;99376.97;5033095;28;20232;-64
2021/12/29 11:01:06;;;;;;;5.03;1.83;;;;;;;9.96;83.04;99372.06;5014485;28;20303;-64
2021/12/29 11:03:33;;;;;;;4.37;1.53;;;;;;;10.11;83.64;99372.81;5028240;28;20265;-65
2021/12/29 11:06:01;;;;;;;4.40;1.57;;;;;;;10.08;83.80;99375.59;5030768;28;20272;-64
2021/12/29 11:08:28;;;;;;;3.17;1.40;;;;;;;10.19;83.61;99375.72;5030626;28;20667;-64
2021/12/29 11:11:00;;;;;;;3.23;1.40;;;;;;;10.30;82.54;99375.84;5027035;28;20244;-65
2021/12/29 11:13:27;;;;;;;2.93;1.37;;;;;;;10.24;82.54;99378.00;5038630;28;20174;-67
2021/12/29 11:15:54;;;;;;;2.47;1.70;;;;;;;10.03;82.77;99393.88;5030572;28;20243;-64
2021/12/29 11:18:20;;;;;;;5.23;1.93;;;;;;;10.02;82.24;99394.78;5030451;28;20208;-64
2021/12/29 11:20:50;;;;;;;4.07;1.83;;;;;;;10.14;81.51;99377.78;5015343;28;20241;-64
2021/12/29 11:23:20;;;;;;;5.00;1.70;;;;;;;10.15;81.91;99376.88;5012624;28;20262;-64
2021/12/29 11:25:46;;;;;;;3.60;1.10;;;;;;;10.26;81.64;99368.47;4993619;28;20175;-64
2021/12/29 11:28:28;;;;;;;3.40;1.50;;;;;;;10.21;81.33;99367.91;5010098;28;20302;-64
2021/12/29 11:30:56;;;;;;;5.23;2.00;;;;;;;10.34;81.25;99367.03;4980051;28;20300;-64
2021/12/29 11:33:24;;;;;;;4.83;1.67;;;;;;;10.30;81.17;99360.44;5016474;28;20265;-64
2021/12/29 11:35:52;;;;;;;2.33;1.40;;;;;;;10.25;81.15;99370.19;4991866;28;20214;-65